sensor_id;sensor_type;location;lat;lon;timestamp;P1;durP1;ratioP1;P2;durP2;ratioP2
52188;SDS011;38162;45.926;13.608;2023-12-29T00:02:20;70.47;;;50.17;;
52188;SDS011;38162;45.926;13.608;2023-12-29T00:04:46;65.87;;;48.40;;
52188;SDS011;38162;45.926;13.608;2023-12-29T00:13:48;69.53;;;50.97;;
52188;SDS011;38162;45.926;13.608;2023-12-29T00:16:15;69.97;;;52.03;;
52188;SDS011;38162;45.926;13.608;2023-12-29T00:18:41;69.23;;;50.47;;
52188;SDS011;38162;45.926;13.608;2023-12-29T00:21:07;66.17;;;49.37;;
52188;SDS011;38162;45.926;13.608;2023-12-29T00:23:33;72.80;;;52.50;;
52188;SDS011;38162;45.926;13.608;2023-12-29T00:25:59;76.30;;;52.00;;
52188;SDS011;38162;45.926;13.608;2023-12-29T00:28:24;67.77;;;49.17;;
52188;SDS011;38162;45.926;13.608;2023-12-29T00:30:50;64.40;;;48.10;;
52188;SDS011;38162;45.926;13.608;2023-12-29T00:33:16;67.10;;;50.30;;
52188;SDS011;38162;45.926;13.608;2023-12-29T00:35:42;67.83;;;49.53;;
52188;SDS011;38162;45.926;13.608;2023-12-29T00:38:07;71.73;;;51.33;;
52188;SDS011;38162;45.926;13.608;2023-12-29T00:40:33;72.43;;;50.90;;
52188;SDS011;38162;45.926;13.608;2023-12-29T00:43:00;66.83;;;49.43;;
52188;SDS011;38162;45.926;13.608;2023-12-29T00:45:26;67.10;;;48.87;;
52188;SDS011;38162;45.926;13.608;2023-12-29T00:47:58;70.73;;;47.83;;
52188;SDS011;38162;45.926;13.608;2023-12-29T00:50:25;66.10;;;48.57;;
52188;SDS011;38162;45.926;13.608;2023-12-29T00:52:51;68.20;;;47.13;;
52188;SDS011;38162;45.926;13.608;2023-12-29T00:55:17;66.93;;;49.57;;
52188;SDS011;38162;45.926;13.608;2023-12-29T00:57:44;70.53;;;50.80;;
52188;SDS011;38162;45.926;13.608;2023-12-29T01:00:11;72.60;;;50.60;;
52188;SDS011;38162;45.926;13.608;2023-12-29T01:02:41;65.57;;;50.27;;
52188;SDS011;38162;45.926;13.608;2023-12-29T01:05:06;68.57;;;50.87;;
52188;SDS011;38162;45.926;13.608;2023-12-29T01:07:32;70.53;;;54.10;;
52188;SDS011;38162;45.926;13.608;2023-12-29T01:09:58;73.67;;;53.47;;
52188;SDS011;38162;45.926;13.608;2023-12-29T01:12:25;70.00;;;51.37;;
52188;SDS011;38162;45.926;13.608;2023-12-29T01:14:50;70.63;;;52.23;;
52188;SDS011;38162;45.926;13.608;2023-12-29T01:17:16;72.30;;;51.83;;
52188;SDS011;38162;45.926;13.608;2023-12-29T01:29:42;70.73;;;52.53;;
52188;SDS011;38162;45.926;13.608;2023-12-29T01:38:54;77.07;;;54.13;;
52188;SDS011;38162;45.926;13.608;2023-12-29T01:46:25;80.13;;;55.23;;
52188;SDS011;38162;45.926;13.608;2023-12-29T01:49:25;74.13;;;56.07;;
52188;SDS011;38162;45.926;13.608;2023-12-29T01:51:54;76.07;;;55.10;;
52188;SDS011;38162;45.926;13.608;2023-12-29T01:54:23;76.03;;;56.63;;
52188;SDS011;38162;45.926;13.608;2023-12-29T01:56:51;80.97;;;57.77;;
52188;SDS011;38162;45.926;13.608;2023-12-29T01:59:23;78.43;;;56.93;;
52188;SDS011;38162;45.926;13.608;2023-12-29T02:01:50;84.13;;;58.00;;
52188;SDS011;38162;45.926;13.608;2023-12-29T02:04:17;81.37;;;59.50;;
52188;SDS011;38162;45.926;13.608;2023-12-29T02:06:43;81.13;;;58.47;;
52188;SDS011;38162;45.926;13.608;2023-12-29T02:09:09;77.63;;;56.03;;
52188;SDS011;38162;45.926;13.608;2023-12-29T02:11:37;81.67;;;58.30;;
52188;SDS011;38162;45.926;13.608;2023-12-29T02:14:03;73.27;;;56.57;;
52188;SDS011;38162;45.926;13.608;2023-12-29T02:22:05;79.20;;;56.83;;
52188;SDS011;38162;45.926;13.608;2023-12-29T02:24:33;77.80;;;56.97;;
52188;SDS011;38162;45.926;13.608;2023-12-29T02:27:21;75.93;;;54.50;;
52188;SDS011;38162;45.926;13.608;2023-12-29T02:29:51;74.57;;;55.07;;
52188;SDS011;38162;45.926;13.608;2023-12-29T02:32:39;76.53;;;54.93;;
52188;SDS011;38162;45.926;13.608;2023-12-29T02:35:12;74.07;;;55.50;;
52188;SDS011;38162;45.926;13.608;2023-12-29T02:37:43;76.87;;;56.33;;
52188;SDS011;38162;45.926;13.608;2023-12-29T02:40:09;76.70;;;58.23;;
52188;SDS011;38162;45.926;13.608;2023-12-29T02:42:36;76.23;;;56.03;;
52188;SDS011;38162;45.926;13.608;2023-12-29T02:45:02;76.30;;;55.20;;
52188;SDS011;38162;45.926;13.608;2023-12-29T02:47:28;75.73;;;56.87;;
52188;SDS011;38162;45.926;13.608;2023-12-29T02:49:54;76.10;;;57.40;;
52188;SDS011;38162;45.926;13.608;2023-12-29T02:52:20;80.17;;;56.40;;
52188;SDS011;38162;45.926;13.608;2023-12-29T02:54:48;80.27;;;56.37;;
52188;SDS011;38162;45.926;13.608;2023-12-29T02:57:17;79.60;;;57.73;;
52188;SDS011;38162;45.926;13.608;2023-12-29T03:25:54;78.37;;;57.70;;
52188;SDS011;38162;45.926;13.608;2023-12-29T03:28:20;81.37;;;55.83;;
52188;SDS011;38162;45.926;13.608;2023-12-29T03:30:46;80.60;;;57.57;;
52188;SDS011;38162;45.926;13.608;2023-12-29T03:33:11;74.23;;;55.47;;
52188;SDS011;38162;45.926;13.608;2023-12-29T03:35:37;78.87;;;57.77;;
52188;SDS011;38162;45.926;13.608;2023-12-29T03:38:03;75.83;;;55.87;;
52188;SDS011;38162;45.926;13.608;2023-12-29T03:40:29;71.50;;;54.83;;
52188;SDS011;38162;45.926;13.608;2023-12-29T03:42:55;73.77;;;56.03;;
52188;SDS011;38162;45.926;13.608;2023-12-29T03:45:20;72.60;;;53.17;;
52188;SDS011;38162;45.926;13.608;2023-12-29T03:47:46;75.50;;;52.20;;
52188;SDS011;38162;45.926;13.608;2023-12-29T03:50:12;70.97;;;49.90;;
52188;SDS011;38162;45.926;13.608;2023-12-29T03:52:38;72.07;;;50.27;;
52188;SDS011;38162;45.926;13.608;2023-12-29T03:55:04;68.63;;;48.80;;
52188;SDS011;38162;45.926;13.608;2023-12-29T03:57:30;68.90;;;50.33;;
52188;SDS011;38162;45.926;13.608;2023-12-29T03:59:56;70.53;;;50.13;;
52188;SDS011;38162;45.926;13.608;2023-12-29T04:02:21;65.93;;;50.53;;
52188;SDS011;38162;45.926;13.608;2023-12-29T04:04:47;66.27;;;48.57;;
52188;SDS011;38162;45.926;13.608;2023-12-29T04:07:13;69.97;;;50.03;;
52188;SDS011;38162;45.926;13.608;2023-12-29T04:09:39;61.20;;;47.50;;
52188;SDS011;38162;45.926;13.608;2023-12-29T04:12:04;65.67;;;50.23;;
52188;SDS011;38162;45.926;13.608;2023-12-29T04:14:30;69.03;;;50.53;;
52188;SDS011;38162;45.926;13.608;2023-12-29T04:16:56;63.37;;;48.63;;
52188;SDS011;38162;45.926;13.608;2023-12-29T04:19:22;62.10;;;45.30;;
52188;SDS011;38162;45.926;13.608;2023-12-29T04:21:48;73.13;;;51.17;;
52188;SDS011;38162;45.926;13.608;2023-12-29T04:24:14;63.63;;;47.00;;
52188;SDS011;38162;45.926;13.608;2023-12-29T04:26:40;66.07;;;48.00;;
52188;SDS011;38162;45.926;13.608;2023-12-29T04:29:05;65.07;;;46.10;;
52188;SDS011;38162;45.926;13.608;2023-12-29T04:31:31;58.60;;;45.13;;
52188;SDS011;38162;45.926;13.608;2023-12-29T04:34:03;70.53;;;51.33;;
52188;SDS011;38162;45.926;13.608;2023-12-29T04:36:29;79.80;;;50.72;;
52188;SDS011;38162;45.926;13.608;2023-12-29T04:56:20;61.60;;;47.08;;
52188;SDS011;38162;45.926;13.608;2023-12-29T04:59:04;63.43;;;47.57;;
52188;SDS011;38162;45.926;13.608;2023-12-29T05:02:36;64.07;;;47.33;;
52188;SDS011;38162;45.926;13.608;2023-12-29T05:05:01;56.47;;;43.50;;
52188;SDS011;38162;45.926;13.608;2023-12-29T05:07:27;146.83;;;45.77;;
52188;SDS011;38162;45.926;13.608;2023-12-29T05:09:53;91.63;;;42.87;;
52188;SDS011;38162;45.926;13.608;2023-12-29T05:12:19;87.53;;;42.63;;
52188;SDS011;38162;45.926;13.608;2023-12-29T05:14:45;93.93;;;42.80;;
52188;SDS011;38162;45.926;13.608;2023-12-29T05:17:10;46.87;;;39.93;;
52188;SDS011;38162;45.926;13.608;2023-12-29T05:19:36;51.20;;;38.93;;
52188;SDS011;38162;45.926;13.608;2023-12-29T05:22:02;62.13;;;39.33;;
52188;SDS011;38162;45.926;13.608;2023-12-29T05:24:28;72.57;;;37.43;;
52188;SDS011;38162;45.926;13.608;2023-12-29T05:26:54;56.80;;;40.27;;
52188;SDS011;38162;45.926;13.608;2023-12-29T05:29:20;56.00;;;38.57;;
52188;SDS011;38162;45.926;13.608;2023-12-29T05:31:45;58.27;;;38.23;;
52188;SDS011;38162;45.926;13.608;2023-12-29T05:34:11;98.13;;;42.30;;
52188;SDS011;38162;45.926;13.608;2023-12-29T05:36:37;53.63;;;42.93;;
52188;SDS011;38162;45.926;13.608;2023-12-29T05:39:03;55.37;;;40.70;;
52188;SDS011;38162;45.926;13.608;2023-12-29T05:41:29;47.87;;;39.20;;
52188;SDS011;38162;45.926;13.608;2023-12-29T05:43:55;53.00;;;42.87;;
52188;SDS011;38162;45.926;13.608;2023-12-29T05:46:23;50.23;;;41.53;;
52188;SDS011;38162;45.926;13.608;2023-12-29T05:48:49;44.70;;;39.03;;
52188;SDS011;38162;45.926;13.608;2023-12-29T05:51:17;45.43;;;37.83;;
52188;SDS011;38162;45.926;13.608;2023-12-29T05:53:43;48.57;;;38.43;;
52188;SDS011;38162;45.926;13.608;2023-12-29T05:56:11;50.33;;;40.23;;
52188;SDS011;38162;45.926;13.608;2023-12-29T05:58:38;55.47;;;42.83;;
52188;SDS011;38162;45.926;13.608;2023-12-29T06:01:08;53.67;;;42.90;;
52188;SDS011;38162;45.926;13.608;2023-12-29T06:03:34;56.40;;;43.23;;
52188;SDS011;38162;45.926;13.608;2023-12-29T06:06:00;57.37;;;44.30;;
52188;SDS011;38162;45.926;13.608;2023-12-29T06:08:26;59.03;;;45.07;;
52188;SDS011;38162;45.926;13.608;2023-12-29T06:10:52;62.00;;;46.10;;
52188;SDS011;38162;45.926;13.608;2023-12-29T06:13:18;62.37;;;46.17;;
52188;SDS011;38162;45.926;13.608;2023-12-29T06:22:41;64.10;;;47.47;;
52188;SDS011;38162;45.926;13.608;2023-12-29T06:38:48;61.93;;;47.97;;
52188;SDS011;38162;45.926;13.608;2023-12-29T06:41:26;59.17;;;45.93;;
52188;SDS011;38162;45.926;13.608;2023-12-29T06:43:52;59.07;;;45.67;;
52188;SDS011;38162;45.926;13.608;2023-12-29T06:46:18;63.23;;;48.63;;
52188;SDS011;38162;45.926;13.608;2023-12-29T06:48:44;60.73;;;48.50;;
52188;SDS011;38162;45.926;13.608;2023-12-29T06:51:15;61.50;;;47.53;;
52188;SDS011;38162;45.926;13.608;2023-12-29T06:53:42;61.58;;;47.97;;
52188;SDS011;38162;45.926;13.608;2023-12-29T06:56:11;59.97;;;47.03;;
52188;SDS011;38162;45.926;13.608;2023-12-29T06:58:38;60.97;;;48.30;;
52188;SDS011;38162;45.926;13.608;2023-12-29T07:01:04;59.23;;;48.33;;
52188;SDS011;38162;45.926;13.608;2023-12-29T07:03:30;59.63;;;47.57;;
52188;SDS011;38162;45.926;13.608;2023-12-29T07:05:55;60.43;;;47.60;;
52188;SDS011;38162;45.926;13.608;2023-12-29T07:08:22;58.67;;;46.93;;
52188;SDS011;38162;45.926;13.608;2023-12-29T07:10:47;59.07;;;47.77;;
52188;SDS011;38162;45.926;13.608;2023-12-29T07:13:15;70.60;;;54.10;;
52188;SDS011;38162;45.926;13.608;2023-12-29T07:15:41;69.83;;;52.90;;
52188;SDS011;38162;45.926;13.608;2023-12-29T07:18:07;75.97;;;52.37;;
52188;SDS011;38162;45.926;13.608;2023-12-29T07:20:32;72.43;;;53.47;;
52188;SDS011;38162;45.926;13.608;2023-12-29T07:22:58;76.57;;;54.40;;
52188;SDS011;38162;45.926;13.608;2023-12-29T07:25:25;72.50;;;56.13;;
52188;SDS011;38162;45.926;13.608;2023-12-29T07:27:50;73.63;;;54.67;;
52188;SDS011;38162;45.926;13.608;2023-12-29T07:30:17;82.13;;;57.67;;
52188;SDS011;38162;45.926;13.608;2023-12-29T07:32:43;82.30;;;56.07;;
52188;SDS011;38162;45.926;13.608;2023-12-29T07:35:09;82.20;;;57.53;;
52188;SDS011;38162;45.926;13.608;2023-12-29T07:37:35;78.17;;;57.53;;
52188;SDS011;38162;45.926;13.608;2023-12-29T07:40:01;76.97;;;59.13;;
52188;SDS011;38162;45.926;13.608;2023-12-29T07:42:28;77.40;;;57.00;;
52188;SDS011;38162;45.926;13.608;2023-12-29T07:44:54;79.07;;;58.47;;
52188;SDS011;38162;45.926;13.608;2023-12-29T07:47:21;76.83;;;58.20;;
52188;SDS011;38162;45.926;13.608;2023-12-29T07:49:47;76.83;;;57.20;;
52188;SDS011;38162;45.926;13.608;2023-12-29T07:52:16;78.80;;;57.60;;
52188;SDS011;38162;45.926;13.608;2023-12-29T07:55:05;79.67;;;57.23;;
52188;SDS011;38162;45.926;13.608;2023-12-29T07:57:52;80.95;;;58.97;;
52188;SDS011;38162;45.926;13.608;2023-12-29T08:01:25;74.37;;;56.07;;
52188;SDS011;38162;45.926;13.608;2023-12-29T08:04:41;80.27;;;57.00;;
52188;SDS011;38162;45.926;13.608;2023-12-29T08:07:51;82.97;;;59.17;;
52188;SDS011;38162;45.926;13.608;2023-12-29T08:13:53;88.87;;;61.07;;
52188;SDS011;38162;45.926;13.608;2023-12-29T08:16:57;90.27;;;62.73;;
52188;SDS011;38162;45.926;13.608;2023-12-29T08:19:23;90.50;;;64.83;;
52188;SDS011;38162;45.926;13.608;2023-12-29T08:21:50;87.33;;;64.47;;
52188;SDS011;38162;45.926;13.608;2023-12-29T08:24:16;92.73;;;64.60;;
52188;SDS011;38162;45.926;13.608;2023-12-29T08:26:45;89.90;;;64.43;;
52188;SDS011;38162;45.926;13.608;2023-12-29T08:29:11;90.57;;;63.47;;
52188;SDS011;38162;45.926;13.608;2023-12-29T08:31:38;94.77;;;62.53;;
52188;SDS011;38162;45.926;13.608;2023-12-29T08:34:04;87.13;;;61.53;;
52188;SDS011;38162;45.926;13.608;2023-12-29T08:36:29;84.93;;;61.17;;
52188;SDS011;38162;45.926;13.608;2023-12-29T08:38:55;89.80;;;62.60;;
52188;SDS011;38162;45.926;13.608;2023-12-29T08:41:22;86.23;;;61.37;;
52188;SDS011;38162;45.926;13.608;2023-12-29T08:43:47;87.90;;;63.40;;
52188;SDS011;38162;45.926;13.608;2023-12-29T08:46:13;91.93;;;64.73;;
52188;SDS011;38162;45.926;13.608;2023-12-29T08:48:39;95.70;;;65.87;;
52188;SDS011;38162;45.926;13.608;2023-12-29T08:51:05;93.80;;;64.53;;
52188;SDS011;38162;45.926;13.608;2023-12-29T08:53:31;88.83;;;65.80;;
52188;SDS011;38162;45.926;13.608;2023-12-29T08:56:00;97.23;;;67.20;;
52188;SDS011;38162;45.926;13.608;2023-12-29T08:58:27;96.40;;;68.13;;
52188;SDS011;38162;45.926;13.608;2023-12-29T09:00:52;102.53;;;70.93;;
52188;SDS011;38162;45.926;13.608;2023-12-29T09:03:19;97.80;;;70.57;;
52188;SDS011;38162;45.926;13.608;2023-12-29T09:05:45;104.53;;;73.50;;
52188;SDS011;38162;45.926;13.608;2023-12-29T09:08:11;104.57;;;72.13;;
52188;SDS011;38162;45.926;13.608;2023-12-29T09:10:36;104.80;;;74.37;;
52188;SDS011;38162;45.926;13.608;2023-12-29T09:13:03;101.70;;;73.53;;
52188;SDS011;38162;45.926;13.608;2023-12-29T09:15:29;105.20;;;74.10;;
52188;SDS011;38162;45.926;13.608;2023-12-29T09:17:55;105.87;;;74.77;;
52188;SDS011;38162;45.926;13.608;2023-12-29T09:20:21;106.03;;;73.07;;
52188;SDS011;38162;45.926;13.608;2023-12-29T09:22:47;101.83;;;72.43;;
52188;SDS011;38162;45.926;13.608;2023-12-29T09:25:13;103.30;;;73.60;;
52188;SDS011;38162;45.926;13.608;2023-12-29T09:27:39;108.07;;;73.20;;
52188;SDS011;38162;45.926;13.608;2023-12-29T09:30:05;104.80;;;74.03;;
52188;SDS011;38162;45.926;13.608;2023-12-29T09:32:32;105.90;;;74.53;;
52188;SDS011;38162;45.926;13.608;2023-12-29T09:35:00;111.00;;;74.43;;
52188;SDS011;38162;45.926;13.608;2023-12-29T09:37:32;100.73;;;71.87;;
52188;SDS011;38162;45.926;13.608;2023-12-29T09:40:36;105.20;;;72.93;;
52188;SDS011;38162;45.926;13.608;2023-12-29T09:43:02;103.20;;;73.00;;
52188;SDS011;38162;45.926;13.608;2023-12-29T09:51:49;104.90;;;71.50;;
52188;SDS011;38162;45.926;13.608;2023-12-29T09:54:21;104.63;;;71.90;;
52188;SDS011;38162;45.926;13.608;2023-12-29T09:57:05;109.20;;;77.97;;
52188;SDS011;38162;45.926;13.608;2023-12-29T09:59:54;111.63;;;77.07;;
52188;SDS011;38162;45.926;13.608;2023-12-29T10:02:23;99.50;;;72.50;;
52188;SDS011;38162;45.926;13.608;2023-12-29T10:04:49;99.93;;;72.67;;
52188;SDS011;38162;45.926;13.608;2023-12-29T10:07:23;211.27;;;144.90;;
52188;SDS011;38162;45.926;13.608;2023-12-29T10:09:55;94.93;;;71.43;;
52188;SDS011;38162;45.926;13.608;2023-12-29T10:12:22;90.37;;;65.60;;
52188;SDS011;38162;45.926;13.608;2023-12-29T10:18:00;91.73;;;66.97;;
52188;SDS011;38162;45.926;13.608;2023-12-29T10:25:59;94.30;;;70.53;;
52188;SDS011;38162;45.926;13.608;2023-12-29T10:28:25;97.23;;;70.23;;
52188;SDS011;38162;45.926;13.608;2023-12-29T10:30:51;99.83;;;70.50;;
52188;SDS011;38162;45.926;13.608;2023-12-29T10:33:20;97.07;;;70.23;;
52188;SDS011;38162;45.926;13.608;2023-12-29T10:36:01;106.23;;;73.33;;
52188;SDS011;38162;45.926;13.608;2023-12-29T10:38:31;96.97;;;75.60;;
52188;SDS011;38162;45.926;13.608;2023-12-29T10:43:42;90.80;;;69.30;;
52188;SDS011;38162;45.926;13.608;2023-12-29T10:46:23;89.80;;;69.43;;
52188;SDS011;38162;45.926;13.608;2023-12-29T10:48:50;88.63;;;66.87;;
52188;SDS011;38162;45.926;13.608;2023-12-29T10:51:16;94.47;;;69.43;;
52188;SDS011;38162;45.926;13.608;2023-12-29T10:53:56;96.63;;;72.50;;
52188;SDS011;38162;45.926;13.608;2023-12-29T10:56:22;97.03;;;72.50;;
52188;SDS011;38162;45.926;13.608;2023-12-29T10:59:01;99.50;;;73.67;;
52188;SDS011;38162;45.926;13.608;2023-12-29T11:01:34;104.67;;;74.70;;
52188;SDS011;38162;45.926;13.608;2023-12-29T11:04:02;104.97;;;75.00;;
52188;SDS011;38162;45.926;13.608;2023-12-29T11:06:29;119.43;;;78.97;;
52188;SDS011;38162;45.926;13.608;2023-12-29T11:09:08;113.17;;;80.67;;
52188;SDS011;38162;45.926;13.608;2023-12-29T11:14:59;104.55;;;73.82;;
52188;SDS011;38162;45.926;13.608;2023-12-29T11:17:27;106.00;;;76.67;;
52188;SDS011;38162;45.926;13.608;2023-12-29T11:20:14;98.43;;;73.47;;
52188;SDS011;38162;45.926;13.608;2023-12-29T11:22:51;107.33;;;77.40;;
52188;SDS011;38162;45.926;13.608;2023-12-29T11:25:20;107.57;;;76.53;;
52188;SDS011;38162;45.926;13.608;2023-12-29T11:28:36;105.63;;;76.83;;
52188;SDS011;38162;45.926;13.608;2023-12-29T11:32:00;107.90;;;75.13;;
52188;SDS011;38162;45.926;13.608;2023-12-29T11:34:33;106.00;;;74.13;;
52188;SDS011;38162;45.926;13.608;2023-12-29T11:37:29;112.60;;;76.03;;
52188;SDS011;38162;45.926;13.608;2023-12-29T11:40:21;106.57;;;74.90;;
52188;SDS011;38162;45.926;13.608;2023-12-29T11:43:13;109.47;;;74.93;;
52188;SDS011;38162;45.926;13.608;2023-12-29T11:45:42;111.53;;;75.27;;
52188;SDS011;38162;45.926;13.608;2023-12-29T11:48:08;110.97;;;74.32;;
52188;SDS011;38162;45.926;13.608;2023-12-29T11:50:36;106.93;;;75.23;;
52188;SDS011;38162;45.926;13.608;2023-12-29T11:53:05;113.40;;;78.87;;
52188;SDS011;38162;45.926;13.608;2023-12-29T11:55:38;111.43;;;80.20;;
52188;SDS011;38162;45.926;13.608;2023-12-29T11:58:05;116.40;;;79.00;;
52188;SDS011;38162;45.926;13.608;2023-12-29T12:00:49;108.23;;;78.80;;
52188;SDS011;38162;45.926;13.608;2023-12-29T12:03:24;113.23;;;78.27;;
52188;SDS011;38162;45.926;13.608;2023-12-29T12:05:52;108.63;;;74.90;;
52188;SDS011;38162;45.926;13.608;2023-12-29T12:08:32;101.47;;;72.75;;
52188;SDS011;38162;45.926;13.608;2023-12-29T12:13:59;101.68;;;73.07;;
52188;SDS011;38162;45.926;13.608;2023-12-29T12:16:46;102.20;;;73.67;;
52188;SDS011;38162;45.926;13.608;2023-12-29T12:19:14;106.77;;;75.27;;
52188;SDS011;38162;45.926;13.608;2023-12-29T12:21:42;108.97;;;77.33;;
52188;SDS011;38162;45.926;13.608;2023-12-29T12:24:12;100.78;;;73.57;;
52188;SDS011;38162;45.926;13.608;2023-12-29T12:26:39;105.55;;;76.30;;
52188;SDS011;38162;45.926;13.608;2023-12-29T12:29:06;110.90;;;77.07;;
52188;SDS011;38162;45.926;13.608;2023-12-29T12:31:32;106.32;;;77.22;;
52188;SDS011;38162;45.926;13.608;2023-12-29T12:33:58;105.33;;;78.17;;
52188;SDS011;38162;45.926;13.608;2023-12-29T12:36:27;102.50;;;77.28;;
52188;SDS011;38162;45.926;13.608;2023-12-29T12:38:55;106.93;;;76.95;;
52188;SDS011;38162;45.926;13.608;2023-12-29T12:41:43;110.43;;;78.28;;
52188;SDS011;38162;45.926;13.608;2023-12-29T12:56:57;110.63;;;80.05;;
52188;SDS011;38162;45.926;13.608;2023-12-29T13:00:13;109.55;;;80.97;;
52188;SDS011;38162;45.926;13.608;2023-12-29T13:03:02;111.20;;;79.85;;
52188;SDS011;38162;45.926;13.608;2023-12-29T13:06:10;108.97;;;80.20;;
52188;SDS011;38162;45.926;13.608;2023-12-29T13:08:49;110.57;;;81.47;;
52188;SDS011;38162;45.926;13.608;2023-12-29T13:11:20;108.23;;;79.90;;
52188;SDS011;38162;45.926;13.608;2023-12-29T13:13:50;103.90;;;74.70;;
52188;SDS011;38162;45.926;13.608;2023-12-29T13:16:55;108.70;;;78.90;;
52188;SDS011;38162;45.926;13.608;2023-12-29T13:19:15;107.05;;;74.75;;
52188;SDS011;38162;45.926;13.608;2023-12-29T13:21:45;103.28;;;75.22;;
52188;SDS011;38162;45.926;13.608;2023-12-29T13:24:12;105.13;;;75.77;;
52188;SDS011;38162;45.926;13.608;2023-12-29T13:26:41;107.82;;;75.55;;
52188;SDS011;38162;45.926;13.608;2023-12-29T13:29:07;110.57;;;79.15;;
52188;SDS011;38162;45.926;13.608;2023-12-29T13:31:34;106.97;;;76.15;;
52188;SDS011;38162;45.926;13.608;2023-12-29T13:34:01;100.80;;;75.30;;
52188;SDS011;38162;45.926;13.608;2023-12-29T13:36:59;101.70;;;74.30;;
52188;SDS011;38162;45.926;13.608;2023-12-29T13:42:08;99.95;;;74.82;;
52188;SDS011;38162;45.926;13.608;2023-12-29T13:44:38;106.55;;;78.70;;
52188;SDS011;38162;45.926;13.608;2023-12-29T13:47:07;107.22;;;80.22;;
52188;SDS011;38162;45.926;13.608;2023-12-29T13:49:33;103.80;;;80.00;;
52188;SDS011;38162;45.926;13.608;2023-12-29T13:52:02;104.25;;;77.63;;
52188;SDS011;38162;45.926;13.608;2023-12-29T13:54:29;102.80;;;77.63;;
52188;SDS011;38162;45.926;13.608;2023-12-29T13:56:55;108.40;;;79.17;;
52188;SDS011;38162;45.926;13.608;2023-12-29T13:59:30;105.07;;;78.32;;
52188;SDS011;38162;45.926;13.608;2023-12-29T14:02:04;106.82;;;78.65;;
52188;SDS011;38162;45.926;13.608;2023-12-29T14:04:46;103.43;;;76.70;;
52188;SDS011;38162;45.926;13.608;2023-12-29T14:07:13;100.93;;;76.83;;
52188;SDS011;38162;45.926;13.608;2023-12-29T14:09:40;105.78;;;77.00;;
52188;SDS011;38162;45.926;13.608;2023-12-29T14:12:06;107.68;;;78.60;;
52188;SDS011;38162;45.926;13.608;2023-12-29T14:14:32;110.63;;;79.80;;
52188;SDS011;38162;45.926;13.608;2023-12-29T14:17:01;114.95;;;78.18;;
52188;SDS011;38162;45.926;13.608;2023-12-29T14:19:56;108.47;;;79.50;;
52188;SDS011;38162;45.926;13.608;2023-12-29T14:23:04;115.65;;;77.35;;
52188;SDS011;38162;45.926;13.608;2023-12-29T14:29:02;111.33;;;79.90;;
52188;SDS011;38162;45.926;13.608;2023-12-29T14:31:51;101.40;;;77.47;;
52188;SDS011;38162;45.926;13.608;2023-12-29T14:35:04;103.05;;;78.72;;
52188;SDS011;38162;45.926;13.608;2023-12-29T14:37:38;106.03;;;81.40;;
52188;SDS011;38162;45.926;13.608;2023-12-29T14:40:29;107.50;;;78.93;;
52188;SDS011;38162;45.926;13.608;2023-12-29T14:42:55;105.00;;;77.03;;
52188;SDS011;38162;45.926;13.608;2023-12-29T14:45:23;112.82;;;80.45;;
52188;SDS011;38162;45.926;13.608;2023-12-29T14:47:49;117.30;;;85.78;;
52188;SDS011;38162;45.926;13.608;2023-12-29T14:50:15;108.22;;;82.20;;
52188;SDS011;38162;45.926;13.608;2023-12-29T14:52:41;112.97;;;84.85;;
52188;SDS011;38162;45.926;13.608;2023-12-29T14:55:07;112.30;;;85.50;;
52188;SDS011;38162;45.926;13.608;2023-12-29T14:57:33;116.30;;;87.28;;
52188;SDS011;38162;45.926;13.608;2023-12-29T14:59:59;114.10;;;83.80;;
52188;SDS011;38162;45.926;13.608;2023-12-29T15:02:24;111.20;;;83.40;;
52188;SDS011;38162;45.926;13.608;2023-12-29T15:04:50;116.50;;;83.93;;
52188;SDS011;38162;45.926;13.608;2023-12-29T15:07:16;111.43;;;81.37;;
52188;SDS011;38162;45.926;13.608;2023-12-29T15:09:43;106.70;;;77.97;;
52188;SDS011;38162;45.926;13.608;2023-12-29T15:12:09;105.63;;;78.72;;
52188;SDS011;38162;45.926;13.608;2023-12-29T15:14:35;108.03;;;77.00;;
52188;SDS011;38162;45.926;13.608;2023-12-29T15:17:01;113.60;;;81.27;;
52188;SDS011;38162;45.926;13.608;2023-12-29T15:19:26;109.78;;;80.75;;
52188;SDS011;38162;45.926;13.608;2023-12-29T15:21:52;110.90;;;81.95;;
52188;SDS011;38162;45.926;13.608;2023-12-29T15:24:21;111.03;;;78.63;;
52188;SDS011;38162;45.926;13.608;2023-12-29T15:26:48;106.10;;;79.13;;
52188;SDS011;38162;45.926;13.608;2023-12-29T15:29:14;104.70;;;77.00;;
52188;SDS011;38162;45.926;13.608;2023-12-29T15:31:43;104.28;;;78.55;;
52188;SDS011;38162;45.926;13.608;2023-12-29T15:34:09;108.13;;;79.83;;
52188;SDS011;38162;45.926;13.608;2023-12-29T15:36:35;105.55;;;79.13;;
52188;SDS011;38162;45.926;13.608;2023-12-29T15:39:01;110.13;;;80.00;;
52188;SDS011;38162;45.926;13.608;2023-12-29T15:41:31;108.85;;;80.22;;
52188;SDS011;38162;45.926;13.608;2023-12-29T15:43:57;109.65;;;80.25;;
52188;SDS011;38162;45.926;13.608;2023-12-29T15:46:26;106.30;;;78.68;;
52188;SDS011;38162;45.926;13.608;2023-12-29T15:49:25;107.03;;;81.78;;
52188;SDS011;38162;45.926;13.608;2023-12-29T16:02:47;110.68;;;80.82;;
52188;SDS011;38162;45.926;13.608;2023-12-29T16:09:59;100.40;;;78.87;;
52188;SDS011;38162;45.926;13.608;2023-12-29T16:12:41;108.95;;;82.30;;
52188;SDS011;38162;45.926;13.608;2023-12-29T16:16:09;110.47;;;82.32;;
52188;SDS011;38162;45.926;13.608;2023-12-29T16:18:37;104.70;;;81.40;;
52188;SDS011;38162;45.926;13.608;2023-12-29T16:21:13;104.17;;;81.43;;
52188;SDS011;38162;45.926;13.608;2023-12-29T16:23:45;107.70;;;81.95;;
52188;SDS011;38162;45.926;13.608;2023-12-29T16:26:11;116.68;;;83.80;;
52188;SDS011;38162;45.926;13.608;2023-12-29T16:28:39;107.75;;;79.47;;
52188;SDS011;38162;45.926;13.608;2023-12-29T16:31:09;104.90;;;80.85;;
52188;SDS011;38162;45.926;13.608;2023-12-29T16:33:35;101.17;;;77.33;;
52188;SDS011;38162;45.926;13.608;2023-12-29T16:36:12;104.85;;;81.20;;
52188;SDS011;38162;45.926;13.608;2023-12-29T16:38:49;99.20;;;78.47;;
52188;SDS011;38162;45.926;13.608;2023-12-29T16:41:16;98.40;;;76.05;;
52188;SDS011;38162;45.926;13.608;2023-12-29T16:43:42;100.77;;;76.53;;
52188;SDS011;38162;45.926;13.608;2023-12-29T16:46:08;105.60;;;78.05;;
52188;SDS011;38162;45.926;13.608;2023-12-29T16:48:35;136.13;;;102.30;;
52188;SDS011;38162;45.926;13.608;2023-12-29T16:51:00;116.57;;;88.43;;
52188;SDS011;38162;45.926;13.608;2023-12-29T16:53:27;99.65;;;80.32;;
52188;SDS011;38162;45.926;13.608;2023-12-29T16:55:53;106.07;;;81.70;;
52188;SDS011;38162;45.926;13.608;2023-12-29T16:58:19;104.78;;;80.70;;
52188;SDS011;38162;45.926;13.608;2023-12-29T17:00:48;140.07;;;103.72;;
52188;SDS011;38162;45.926;13.608;2023-12-29T17:03:15;142.30;;;105.47;;
52188;SDS011;38162;45.926;13.608;2023-12-29T17:05:42;117.10;;;89.18;;